Time;durP1;ratioP1;P1;durP2;ratioP2;P2;SDS_P1;SDS_P2;PMS_P1;PMS_P2;Temp;Humidity;BMP_temperature;BMP_pressure;BME280_temperature;BME280_humidity;BME280_pressure;Samples;Min_cycle;Max_cycle;Signal;HPM_P1;HPM_P2
2022/03/25 00:00:36;;;;;;;51.15;38.13;;;;;;;-148.33;100.00;56587.81;5047622;28;20132;-59
2022/03/25 00:03:02;;;;;;;56.13;39.42;;;;;;;-148.33;100.00;56587.81;5050857;28;20033;-59
2022/03/25 00:05:28;;;;;;;53.15;40.05;;;;;;;-148.33;100.00;56587.81;5052257;28;20436;-59
2022/03/25 00:07:53;;;;;;;54.17;39.17;;;;;;;-148.33;100.00;56587.81;5051343;28;20100;-59
2022/03/25 00:10:19;;;;;;;52.03;39.53;;;;;;;-148.33;100.00;56587.81;5051650;28;20531;-59
2022/03/25 00:12:44;;;;;;;56.55;41.22;;;;;;;-148.33;100.00;56587.81;5051928;28;20027;-59
2022/03/25 00:15:10;;;;;;;58.65;42.88;;;;;;;-148.33;100.00;56587.81;5051814;28;20095;-59
2022/03/25 00:17:35;;;;;;;56.05;41.95;;;;;;;-148.33;100.00;56587.81;5051435;28;20032;-59
2022/03/25 00:20:00;;;;;;;62.60;44.55;;;;;;;-148.33;100.00;56587.81;5052078;28;20242;-56
2022/03/25 00:22:26;;;;;;;60.60;45.35;;;;;;;-148.33;100.00;56587.81;5051030;28;20028;-59
2022/03/25 00:24:51;;;;;;;59.88;42.25;;;;;;;-148.33;100.00;56587.81;5051426;28;20059;-58
2022/03/25 00:27:17;;;;;;;61.88;42.78;;;;;;;-148.33;100.00;56587.81;5051616;28;20027;-60
2022/03/25 00:29:42;;;;;;;64.75;45.03;;;;;;;-148.33;100.00;56587.81;5050656;28;20033;-58
2022/03/25 00:32:08;;;;;;;66.63;47.13;;;;;;;-148.33;100.00;56587.81;5051215;28;20029;-60
2022/03/25 00:34:33;;;;;;;64.33;44.23;;;;;;;-148.33;100.00;56587.81;5050844;28;20460;-59
2022/03/25 00:36:58;;;;;;;57.63;44.15;;;;;;;-148.33;100.00;56587.81;5051333;28;20035;-59
2022/03/25 00:39:24;;;;;;;63.25;44.58;;;;;;;-148.33;100.00;56587.81;5051339;28;20025;-60
2022/03/25 00:41:50;;;;;;;59.00;45.03;;;;;;;-148.33;100.00;56587.81;5051044;28;20029;-59
2022/03/25 00:44:18;;;;;;;62.05;47.08;;;;;;;-148.33;100.00;56587.81;5050848;28;20322;-60
2022/03/25 00:46:44;;;;;;;63.25;45.47;;;;;;;-148.33;100.00;56587.81;5061050;28;20021;-60
2022/03/25 00:49:10;;;;;;;61.42;44.75;;;;;;;-148.33;100.00;56587.81;5069921;28;20031;-59
2022/03/25 00:51:35;;;;;;;60.25;46.35;;;;;;;-148.33;100.00;56587.81;5070245;28;20528;-58
2022/03/25 00:54:02;;;;;;;58.08;44.58;;;;;;;-148.33;100.00;56587.81;5070163;28;20143;-59
2022/03/25 00:56:27;;;;;;;63.80;45.05;;;;;;;-148.33;100.00;56587.81;5069842;28;20043;-59
2022/03/25 00:58:52;;;;;;;60.70;44.73;;;;;;;-148.33;100.00;56587.81;5051266;28;20433;-58
2022/03/25 01:01:18;;;;;;;64.90;46.60;;;;;;;-148.33;100.00;56587.81;5070499;28;20081;-59
2022/03/25 01:03:43;;;;;;;61.05;45.47;;;;;;;-148.33;100.00;56587.81;5070217;28;20025;-59
2022/03/25 01:06:09;;;;;;;66.63;46.07;;;;;;;-148.33;100.00;56587.81;5069200;28;20063;-58
2022/03/25 01:08:35;;;;;;;67.60;46.47;;;;;;;-148.33;100.00;56587.81;5069855;28;20514;-59
2022/03/25 01:11:01;;;;;;;62.27;45.50;;;;;;;-148.33;100.00;56587.81;5069853;28;20179;-59
2022/03/25 01:13:26;;;;;;;62.92;45.45;;;;;;;-148.33;100.00;56587.81;5069500;28;20028;-59
2022/03/25 01:15:51;;;;;;;61.57;45.53;;;;;;;-148.33;100.00;56587.81;5069235;28;20028;-57
2022/03/25 01:18:17;;;;;;;64.43;48.73;;;;;;;-148.33;100.00;56587.81;5069716;28;20112;-58
2022/03/25 01:20:42;;;;;;;69.90;47.08;;;;;;;-148.33;100.00;56587.81;5069532;28;20028;-59
2022/03/25 01:23:09;;;;;;;70.83;47.37;;;;;;;-148.33;100.00;56587.81;5068710;28;20028;-59
2022/03/25 01:25:36;;;;;;;63.70;46.43;;;;;;;-148.33;100.00;56587.81;5069803;28;20024;-58
2022/03/25 01:28:01;;;;;;;66.90;46.33;;;;;;;-148.33;100.00;56587.81;5069124;28;20461;-59
2022/03/25 01:30:26;;;;;;;68.67;47.97;;;;;;;-148.33;100.00;56587.81;5069370;28;20077;-59
2022/03/25 01:32:52;;;;;;;70.03;50.83;;;;;;;-148.33;100.00;56587.81;5069033;28;20235;-59
2022/03/25 01:35:22;;;;;;;68.40;49.83;;;;;;;-148.33;100.00;56587.81;5069322;28;20028;-60
2022/03/25 01:37:47;;;;;;;69.30;48.07;;;;;;;-148.33;100.00;56587.81;5069367;28;20023;-59
2022/03/25 01:40:12;;;;;;;69.07;48.80;;;;;;;-148.33;100.00;56587.81;5069012;28;20020;-60
2022/03/25 01:42:41;;;;;;;67.17;48.27;;;;;;;-148.33;100.00;56587.81;5069223;28;20097;-59
2022/03/25 01:45:11;;;;;;;69.70;49.13;;;;;;;-148.33;100.00;56587.81;5068855;28;20380;-59
2022/03/25 01:47:36;;;;;;;69.50;49.63;;;;;;;-148.33;100.00;56587.81;5068895;28;20557;-58
2022/03/25 01:50:03;;;;;;;69.47;49.47;;;;;;;-148.33;100.00;56587.81;5069695;28;20017;-59
2022/03/25 01:52:29;;;;;;;70.17;49.13;;;;;;;-148.33;100.00;56587.81;5069551;28;20584;-59
2022/03/25 01:54:55;;;;;;;67.47;47.20;;;;;;;-148.33;100.00;56587.81;5068852;28;20134;-58
2022/03/25 01:57:24;;;;;;;68.27;47.30;;;;;;;-148.33;100.00;56587.81;5068358;28;20472;-58
2022/03/25 01:59:53;;;;;;;70.63;48.33;;;;;;;-148.33;100.00;56587.81;5068235;28;20049;-59
2022/03/25 02:02:18;;;;;;;70.57;47.43;;;;;;;-148.33;100.00;56587.81;5069006;28;20163;-60
2022/03/25 02:04:43;;;;;;;62.37;47.20;;;;;;;-148.33;100.00;56587.81;5069487;28;20012;-59
2022/03/25 02:07:09;;;;;;;68.83;47.30;;;;;;;-148.33;100.00;56587.81;5068319;28;20191;-59
2022/03/25 02:09:34;;;;;;;66.30;46.53;;;;;;;-148.33;100.00;56587.81;5068715;28;20048;-59
2022/03/25 02:12:00;;;;;;;66.10;45.20;;;;;;;-148.33;100.00;56587.81;5068602;28;20073;-60
2022/03/25 02:14:25;;;;;;;62.77;45.07;;;;;;;-148.33;100.00;56587.81;5068554;28;20408;-59
2022/03/25 02:16:51;;;;;;;68.70;45.47;;;;;;;-148.33;100.00;56587.81;5068481;28;20426;-60
2022/03/25 02:19:18;;;;;;;62.87;42.30;;;;;;;-148.33;100.00;56587.81;5068498;28;20017;-59
2022/03/25 02:21:44;;;;;;;65.97;45.87;;;;;;;-148.33;100.00;56587.81;5068858;28;20409;-59
2022/03/25 02:24:11;;;;;;;62.97;44.13;;;;;;;-148.33;100.00;56587.81;5067975;28;20179;-54
2022/03/25 02:26:37;;;;;;;63.20;43.87;;;;;;;-148.33;100.00;56587.81;5068633;28;20203;-60
2022/03/25 02:29:04;;;;;;;65.03;44.47;;;;;;;-148.33;100.00;56587.81;5067982;28;20618;-59
2022/03/25 02:31:30;;;;;;;65.00;43.93;;;;;;;-148.33;100.00;56587.81;5068301;28;20044;-57
2022/03/25 02:34:04;;;;;;;63.20;43.47;;;;;;;-148.33;100.00;56587.81;5068349;28;20579;-59
2022/03/25 02:36:35;;;;;;;62.63;44.03;;;;;;;-148.33;100.00;56587.81;5068578;28;20028;-57
2022/03/25 02:39:01;;;;;;;60.40;43.53;;;;;;;-148.33;100.00;56587.81;5067810;28;20137;-59
2022/03/25 02:41:26;;;;;;;61.93;43.23;;;;;;;-148.33;100.00;56587.81;5067506;28;20047;-60
2022/03/25 02:43:52;;;;;;;57.50;42.37;;;;;;;-148.33;100.00;56587.81;5067870;28;20028;-59
2022/03/25 02:46:17;;;;;;;63.57;42.17;;;;;;;-148.33;100.00;56587.81;5068175;28;20506;-59
2022/03/25 02:48:42;;;;;;;54.47;40.00;;;;;;;-148.33;100.00;56587.81;5067826;28;20047;-59
2022/03/25 02:51:07;;;;;;;56.07;39.60;;;;;;;-148.33;100.00;56587.81;5067766;28;20484;-59
2022/03/25 02:53:33;;;;;;;51.77;38.03;;;;;;;-148.33;100.00;56587.81;5067503;28;20056;-59
2022/03/25 02:55:58;;;;;;;56.07;39.47;;;;;;;-148.33;100.00;56587.81;5067781;28;20028;-59
2022/03/25 02:58:24;;;;;;;57.17;39.50;;;;;;;-148.33;100.00;56587.81;5049810;28;20473;-59
2022/03/25 03:00:49;;;;;;;51.50;37.97;;;;;;;-148.33;100.00;56587.81;5067519;28;20463;-60
2022/03/25 03:03:15;;;;;;;52.40;38.00;;;;;;;-148.33;100.00;56587.81;5067344;28;20040;-58
2022/03/25 03:05:40;;;;;;;55.50;38.27;;;;;;;-148.33;100.00;56587.81;5067631;28;20025;-60
2022/03/25 03:08:06;;;;;;;52.70;38.63;;;;;;;-148.33;100.00;56587.81;5067442;28;20159;-59
2022/03/25 03:10:32;;;;;;;51.70;37.63;;;;;;;-148.33;100.00;56587.81;5068427;28;20070;-59
2022/03/25 03:12:59;;;;;;;53.17;36.60;;;;;;;-148.33;100.00;56587.81;5067429;28;20035;-59
2022/03/25 03:15:24;;;;;;;53.23;38.80;;;;;;;-148.33;100.00;56587.81;5067489;28;20035;-59
2022/03/25 03:17:50;;;;;;;52.07;37.07;;;;;;;-148.33;100.00;56587.81;5067099;28;20396;-59
2022/03/25 03:20:17;;;;;;;48.60;37.07;;;;;;;-148.33;100.00;56587.81;5067468;28;20025;-58
2022/03/25 03:22:43;;;;;;;51.93;36.63;;;;;;;-148.33;100.00;56587.81;5067873;28;20025;-58
2022/03/25 03:25:10;;;;;;;46.63;34.87;;;;;;;-148.33;100.00;56587.81;5066674;28;20473;-59
2022/03/25 03:27:36;;;;;;;49.80;36.40;;;;;;;-148.33;100.00;56587.81;5067367;28;20054;-59
2022/03/25 03:30:02;;;;;;;49.77;36.43;;;;;;;-148.33;100.00;56587.81;5067048;28;20028;-59
2022/03/25 03:32:27;;;;;;;49.63;36.47;;;;;;;-148.33;100.00;56587.81;5066706;28;20380;-59
2022/03/25 03:34:53;;;;;;;54.27;37.40;;;;;;;-148.33;100.00;56587.81;5067910;28;20028;-60
2022/03/25 03:37:20;;;;;;;52.57;38.10;;;;;;;-148.33;100.00;56587.81;5067066;28;20055;-59
2022/03/25 03:39:45;;;;;;;51.90;37.30;;;;;;;-148.33;100.00;56587.81;5067115;28;20032;-59
2022/03/25 03:42:10;;;;;;;49.43;36.10;;;;;;;-148.33;100.00;56587.81;5066594;28;20370;-58
2022/03/25 03:44:36;;;;;;;50.53;36.60;;;;;;;-148.33;100.00;56587.81;5067222;28;20032;-58
2022/03/25 03:47:03;;;;;;;51.20;36.00;;;;;;;-148.33;100.00;56587.81;5067506;28;20358;-59
2022/03/25 03:49:29;;;;;;;49.30;36.47;;;;;;;-148.33;100.00;56587.81;5048832;28;20115;-59
2022/03/25 03:51:54;;;;;;;47.67;34.90;;;;;;;-148.33;100.00;56587.81;5066885;28;20547;-58
2022/03/25 03:54:19;;;;;;;48.17;34.70;;;;;;;-148.33;100.00;56587.81;5067196;28;20028;-60
2022/03/25 03:56:45;;;;;;;45.00;34.63;;;;;;;-148.33;100.00;56587.81;5066940;28;20032;-59
2022/03/25 03:59:10;;;;;;;50.07;35.83;;;;;;;-148.33;100.00;56587.81;5067128;28;20048;-59
2022/03/25 04:01:35;;;;;;;50.37;34.97;;;;;;;-148.33;100.00;56587.81;5066445;28;20043;-57
2022/03/25 04:04:00;;;;;;;48.40;35.07;;;;;;;-148.33;100.00;56587.81;5066718;28;20033;-59
2022/03/25 04:06:27;;;;;;;53.60;35.80;;;;;;;-148.33;100.00;56587.81;5067261;28;20515;-60
2022/03/25 04:08:52;;;;;;;49.73;34.83;;;;;;;-148.33;100.00;56587.81;5066969;28;20039;-59
2022/03/25 04:11:18;;;;;;;47.67;34.00;;;;;;;-148.33;100.00;56587.81;5066789;28;20021;-59
2022/03/25 04:13:45;;;;;;;45.30;34.53;;;;;;;-148.33;100.00;56587.81;5066762;28;20016;-59
2022/03/25 04:16:10;;;;;;;48.93;34.77;;;;;;;-148.33;100.00;56587.81;5066403;28;20074;-59
2022/03/25 04:18:37;;;;;;;50.13;34.40;;;;;;;-148.33;100.00;56587.81;5066905;28;20415;-59
2022/03/25 04:21:03;;;;;;;48.33;33.37;;;;;;;-148.33;100.00;56587.81;5059485;28;20057;-60
2022/03/25 04:23:28;;;;;;;50.33;35.43;;;;;;;-148.33;100.00;56587.81;5028399;28;20650;-59
2022/03/25 04:25:53;;;;;;;45.77;33.30;;;;;;;-148.33;100.00;56587.81;5046981;28;20068;-59
2022/03/25 04:28:19;;;;;;;49.27;33.43;;;;;;;-148.33;100.00;56587.81;5047298;28;20029;-57
2022/03/25 04:30:44;;;;;;;48.37;34.23;;;;;;;-148.33;100.00;56587.81;5047247;28;20029;-59
2022/03/25 04:33:09;;;;;;;48.13;34.10;;;;;;;-148.33;100.00;56587.81;5047083;28;20385;-59
2022/03/25 04:35:35;;;;;;;48.87;33.33;;;;;;;-148.33;100.00;56587.81;5047118;28;20037;-57
2022/03/25 04:38:01;;;;;;;44.47;33.50;;;;;;;-148.33;100.00;56587.81;5047536;28;20032;-60
2022/03/25 04:40:29;;;;;;;48.20;34.13;;;;;;;-148.33;100.00;56587.81;5047453;28;20541;-59
2022/03/25 04:42:56;;;;;;;48.30;35.13;;;;;;;-148.33;100.00;56587.81;5047184;28;20021;-57
2022/03/25 04:45:23;;;;;;;52.27;35.37;;;;;;;-148.33;100.00;56587.81;5046910;28;20070;-59
2022/03/25 04:47:48;;;;;;;43.97;32.50;;;;;;;-148.33;100.00;56587.81;5048549;28;20256;-59
2022/03/25 04:50:14;;;;;;;46.37;34.07;;;;;;;-148.33;100.00;56587.81;5051019;28;20532;-58
2022/03/25 04:52:39;;;;;;;45.87;34.33;;;;;;;-148.33;100.00;56587.81;5051430;28;20039;-59
2022/03/25 04:55:05;;;;;;;48.23;34.57;;;;;;;-148.33;100.00;56587.81;5050699;28;20219;-59
2022/03/25 04:57:31;;;;;;;47.43;35.23;;;;;;;-148.33;100.00;56587.81;5050898;28;20027;-59
2022/03/25 04:59:56;;;;;;;49.87;34.67;;;;;;;-148.33;100.00;56587.81;5049874;28;20041;-57
2022/03/25 05:02:22;;;;;;;55.17;36.00;;;;;;;-148.33;100.00;56587.81;5050432;28;20040;-59
2022/03/25 05:04:47;;;;;;;47.30;33.07;;;;;;;-148.33;100.00;56587.81;5051069;28;20017;-59
2022/03/25 05:07:14;;;;;;;44.53;32.63;;;;;;;-148.33;100.00;56587.81;5050478;28;20029;-59
2022/03/25 05:09:40;;;;;;;48.27;34.80;;;;;;;-148.33;100.00;56587.81;5050118;28;20374;-59
2022/03/25 05:12:05;;;;;;;48.70;34.93;;;;;;;-148.33;100.00;56587.81;5050417;28;20044;-60
2022/03/25 05:14:30;;;;;;;46.00;33.37;;;;;;;-148.33;100.00;56587.81;5050686;28;20035;-59
2022/03/25 05:16:56;;;;;;;47.77;34.40;;;;;;;-148.33;100.00;56587.81;5050632;28;20126;-59
2022/03/25 05:19:22;;;;;;;52.00;34.80;;;;;;;-148.33;100.00;56587.81;5048413;28;20474;-59
2022/03/25 05:21:47;;;;;;;50.83;34.60;;;;;;;-148.33;100.00;56587.81;5048116;28;20029;-58
2022/03/25 05:24:12;;;;;;;51.57;36.20;;;;;;;-148.33;100.00;56587.81;5048655;28;20104;-59
2022/03/25 05:26:38;;;;;;;50.87;35.33;;;;;;;-148.33;100.00;56587.81;5048962;28;20035;-59
2022/03/25 05:29:04;;;;;;;50.43;34.93;;;;;;;-148.33;100.00;56587.81;5050218;28;20029;-57
2022/03/25 05:31:29;;;;;;;55.77;35.93;;;;;;;-148.33;100.00;56587.81;5050422;28;20537;-59
2022/03/25 05:33:55;;;;;;;49.03;36.27;;;;;;;-148.33;100.00;56587.81;5049189;28;20039;-59
2022/03/25 05:36:20;;;;;;;48.27;34.80;;;;;;;-148.33;100.00;56587.81;5051019;28;20124;-59
2022/03/25 05:38:45;;;;;;;51.20;34.90;;;;;;;-148.33;100.00;56587.81;5068902;28;20032;-60
2022/03/25 05:41:10;;;;;;;54.50;36.33;;;;;;;-148.33;100.00;56587.81;5069324;28;20029;-60
2022/03/25 05:43:36;;;;;;;51.17;36.87;;;;;;;-148.33;100.00;56587.81;5068425;28;20039;-58
2022/03/25 05:46:03;;;;;;;59.17;37.13;;;;;;;-148.33;100.00;56587.81;5068973;28;20027;-59
2022/03/25 05:48:29;;;;;;;55.20;38.73;;;;;;;-148.33;100.00;56587.81;5051363;28;20044;-60
2022/03/25 05:50:54;;;;;;;50.80;36.10;;;;;;;-148.33;100.00;56587.81;5055558;28;20032;-59
2022/03/25 05:53:20;;;;;;;51.80;36.53;;;;;;;-148.33;100.00;56587.81;5062304;28;20077;-60
2022/03/25 05:55:45;;;;;;;50.03;35.60;;;;;;;-148.33;100.00;56587.81;5049707;28;20393;-60
2022/03/25 05:58:10;;;;;;;51.93;36.83;;;;;;;-148.33;100.00;56587.81;5066227;28;20484;-59
2022/03/25 06:00:36;;;;;;;50.40;36.80;;;;;;;-148.33;100.00;56587.81;5065533;28;20044;-60
2022/03/25 06:03:01;;;;;;;52.60;37.00;;;;;;;-148.33;100.00;56587.81;5066664;28;20036;-59
2022/03/25 06:05:27;;;;;;;53.87;37.33;;;;;;;-148.33;100.00;56587.81;5066929;28;20020;-60
2022/03/25 06:07:52;;;;;;;55.50;38.03;;;;;;;-148.33;100.00;56587.81;5066936;28;20029;-58
2022/03/25 06:10:17;;;;;;;57.00;39.13;;;;;;;-148.33;100.00;56587.81;5066787;28;20081;-59
2022/03/25 06:12:43;;;;;;;54.63;38.50;;;;;;;-148.33;100.00;56587.81;5068464;28;20056;-57
2022/03/25 06:15:09;;;;;;;56.53;39.03;;;;;;;-148.33;100.00;56587.81;5068468;28;20032;-60
2022/03/25 06:17:45;;;;;;;51.53;38.23;;;;;;;-148.33;100.00;56587.81;5068246;28;20162;-60
2022/03/25 06:20:13;;;;;;;56.17;40.03;;;;;;;-148.33;100.00;56587.81;5068345;28;20065;-58
2022/03/25 06:22:40;;;;;;;55.43;40.20;;;;;;;-148.33;100.00;56587.81;5068328;28;20032;-60
2022/03/25 06:25:07;;;;;;;59.50;42.03;;;;;;;-148.33;100.00;56587.81;5067596;28;20392;-60
2022/03/25 06:27:32;;;;;;;54.63;39.80;;;;;;;-148.33;100.00;56587.81;5068811;28;20483;-59
2022/03/25 06:29:58;;;;;;;57.27;41.13;;;;;;;-148.33;100.00;56587.81;5058058;28;20024;-59
2022/03/25 06:32:23;;;;;;;60.43;40.77;;;;;;;-148.33;100.00;56587.81;5051826;28;20246;-59
2022/03/25 06:34:49;;;;;;;58.83;41.87;;;;;;;-148.33;100.00;56587.81;5051854;28;20044;-59
2022/03/25 06:37:14;;;;;;;61.60;41.50;;;;;;;-148.33;100.00;56587.81;5052009;28;20704;-60
2022/03/25 06:39:39;;;;;;;62.37;43.73;;;;;;;-148.33;100.00;56587.81;5050225;28;20024;-60
2022/03/25 06:42:06;;;;;;;53.70;40.93;;;;;;;-148.33;100.00;56587.81;5051910;28;20405;-59
2022/03/25 06:44:31;;;;;;;59.43;42.67;;;;;;;-148.33;100.00;56587.81;5052200;28;20021;-59
2022/03/25 06:46:56;;;;;;;64.93;42.30;;;;;;;-148.33;100.00;56587.81;5050032;28;20431;-59
2022/03/25 06:49:22;;;;;;;57.53;41.37;;;;;;;-148.33;100.00;56587.81;5049320;28;20029;-58
2022/03/25 06:51:47;;;;;;;56.33;43.30;;;;;;;-148.33;100.00;56587.81;5050274;28;20021;-57
2022/03/25 06:54:13;;;;;;;54.50;41.28;;;;;;;-148.33;100.00;56587.81;5055108;28;20032;-57
2022/03/25 06:56:39;;;;;;;59.83;43.38;;;;;;;-148.33;100.00;56587.81;5050280;28;20032;-57
2022/03/25 06:59:04;;;;;;;58.30;43.22;;;;;;;-148.33;100.00;56587.81;5048636;28;20020;-56
2022/03/25 07:01:32;;;;;;;63.58;45.85;;;;;;;-148.33;100.00;56587.81;5051258;28;20029;-58
2022/03/25 07:03:58;;;;;;;59.78;43.63;;;;;;;-148.33;100.00;56587.81;5050239;28;20029;-58
2022/03/25 07:06:24;;;;;;;60.15;44.15;;;;;;;-148.33;100.00;56587.81;5054114;28;20051;-58
2022/03/25 07:08:55;;;;;;;55.78;45.63;;;;;;;-148.33;100.00;56587.81;5049650;28;20469;-58
2022/03/25 07:11:22;;;;;;;61.35;46.35;;;;;;;-148.33;100.00;56587.81;5050248;28;20039;-57
2022/03/25 07:13:48;;;;;;;56.97;45.60;;;;;;;-148.33;100.00;56587.81;5052436;28;20033;-56
2022/03/25 07:16:13;;;;;;;61.53;47.13;;;;;;;-148.33;100.00;56587.81;5048541;28;20385;-57
2022/03/25 07:18:39;;;;;;;57.53;45.58;;;;;;;-148.33;100.00;56587.81;5047855;28;20078;-58
2022/03/25 07:21:04;;;;;;;65.90;48.55;;;;;;;-148.33;100.00;56587.81;5047632;28;20048;-59
2022/03/25 07:23:30;;;;;;;60.05;48.72;;;;;;;-148.33;100.00;56587.81;5053212;28;20060;-55
2022/03/25 07:25:56;;;;;;;60.50;46.28;;;;;;;-148.33;100.00;56587.81;5067345;28;20043;-58
2022/03/25 07:28:21;;;;;;;61.55;47.92;;;;;;;-148.33;100.00;56587.81;5066277;28;20393;-57
2022/03/25 07:30:47;;;;;;;61.95;48.10;;;;;;;-148.33;100.00;56587.81;5066820;28;20024;-58
2022/03/25 07:33:12;;;;;;;63.97;50.60;;;;;;;-148.33;100.00;56587.81;5066896;28;20021;-57
2022/03/25 07:35:38;;;;;;;62.72;49.83;;;;;;;-148.33;100.00;56587.81;5067215;28;20025;-58
2022/03/25 07:38:06;;;;;;;62.25;50.08;;;;;;;-148.33;100.00;56587.81;5066485;28;20063;-59
2022/03/25 07:40:32;;;;;;;58.63;48.63;;;;;;;-148.33;100.00;56587.81;5065892;28;20020;-58
2022/03/25 07:42:58;;;;;;;61.60;49.78;;;;;;;-148.33;100.00;56587.81;5055951;28;20032;-58
2022/03/25 07:45:24;;;;;;;57.97;47.90;;;;;;;-148.33;100.00;56587.81;5047626;28;20024;-58
2022/03/25 07:47:49;;;;;;;59.90;48.65;;;;;;;-148.33;100.00;56587.81;5047232;28;20462;-58
2022/03/25 07:50:20;;;;;;;57.72;48.08;;;;;;;-148.33;100.00;56587.81;5054580;28;20031;-59
2022/03/25 07:52:46;;;;;;;59.42;47.08;;;;;;;-148.33;100.00;56587.81;5045221;28;20059;-58
2022/03/25 07:55:13;;;;;;;58.40;47.25;;;;;;;-148.33;100.00;56587.81;5050467;28;20025;-58
2022/03/25 07:57:39;;;;;;;57.63;48.22;;;;;;;-148.33;100.00;56587.81;5046391;28;20033;-57
2022/03/25 08:00:11;;;;;;;59.55;46.90;;;;;;;-148.33;100.00;56587.81;5046293;28;20049;-59
2022/03/25 08:02:37;;;;;;;53.38;47.30;;;;;;;-148.33;100.00;56587.81;5049010;28;20039;-57
2022/03/25 08:05:03;;;;;;;57.97;48.35;;;;;;;-148.33;100.00;56587.81;5048980;28;20060;-59
2022/03/25 08:07:29;;;;;;;58.25;47.90;;;;;;;-148.33;100.00;56587.81;5049440;28;20567;-58
2022/03/25 08:09:54;;;;;;;57.13;47.03;;;;;;;-148.33;100.00;56587.81;5047536;28;20059;-59
2022/03/25 08:12:21;;;;;;;55.78;47.60;;;;;;;-148.33;100.00;56587.81;5048291;28;20730;-59
2022/03/25 08:14:47;;;;;;;57.08;47.67;;;;;;;-148.33;100.00;56587.81;5049996;28;20029;-59
2022/03/25 08:17:13;;;;;;;53.97;45.70;;;;;;;-148.33;100.00;56587.81;5048394;28;20094;-57
2022/03/25 08:19:39;;;;;;;54.72;47.60;;;;;;;-148.33;100.00;56587.81;5046522;28;20267;-60
2022/03/25 08:22:04;;;;;;;52.72;47.15;;;;;;;-148.33;100.00;56587.81;5046508;28;20035;-58
2022/03/25 08:29:57;;;;;;;55.67;46.40;;;;;;;-148.33;100.00;56587.81;5054344;28;20452;-56
2022/03/25 08:32:22;;;;;;;53.78;47.97;;;;;;;-148.33;100.00;56587.81;5053915;28;20056;-58
2022/03/25 08:34:47;;;;;;;54.42;46.65;;;;;;;-148.33;100.00;56587.81;5050741;28;20044;-58
2022/03/25 08:37:13;;;;;;;51.50;45.95;;;;;;;-148.33;100.00;56587.81;5053725;28;20056;-59
2022/03/25 08:39:38;;;;;;;51.25;45.78;;;;;;;-148.33;100.00;56587.81;5055163;28;20764;-58
2022/03/25 08:42:05;;;;;;;51.88;44.78;;;;;;;-148.33;100.00;56587.81;5063846;28;20020;-58
2022/03/25 08:44:30;;;;;;;49.92;43.35;;;;;;;-148.33;100.00;56587.81;5052817;28;20379;-58
2022/03/25 08:46:56;;;;;;;52.58;45.10;;;;;;;-148.33;100.00;56587.81;5064893;28;20099;-59
2022/03/25 08:49:21;;;;;;;52.25;45.55;;;;;;;-148.33;100.00;56587.81;5069992;28;20028;-58
2022/03/25 08:51:46;;;;;;;50.90;43.03;;;;;;;-148.33;100.00;56587.81;5070396;28;20457;-57
2022/03/25 08:54:14;;;;;;;50.72;42.28;;;;;;;-148.33;100.00;56587.81;5068501;28;20024;-57
2022/03/25 08:56:39;;;;;;;46.97;41.63;;;;;;;-148.33;100.00;56587.81;5052024;28;20043;-58
2022/03/25 08:59:05;;;;;;;50.80;44.10;;;;;;;-148.33;100.00;56587.81;5064777;28;20036;-57
2022/03/25 09:01:30;;;;;;;46.22;41.17;;;;;;;-148.33;100.00;56587.81;5063428;28;20281;-58
2022/03/25 09:03:56;;;;;;;46.22;39.92;;;;;;;-148.33;100.00;56587.81;5062997;28;20479;-59
2022/03/25 09:06:21;;;;;;;47.28;40.80;;;;;;;-148.33;100.00;56587.81;5055838;28;20059;-58
2022/03/25 09:08:47;;;;;;;48.17;39.83;;;;;;;-148.33;100.00;56587.81;5070356;28;20055;-58
2022/03/25 09:11:12;;;;;;;47.22;40.10;;;;;;;-148.33;100.00;56587.81;5050161;28;20021;-58
2022/03/25 09:13:40;;;;;;;44.55;39.67;;;;;;;-148.33;100.00;56587.81;5049877;28;20036;-58
2022/03/25 09:16:05;;;;;;;46.33;40.17;;;;;;;-148.33;100.00;56587.81;5050032;28;20032;-59
2022/03/25 09:18:30;;;;;;;45.70;40.13;;;;;;;-148.33;100.00;56587.81;5051482;28;20086;-58
2022/03/25 09:20:56;;;;;;;44.25;39.28;;;;;;;-148.33;100.00;56587.81;5067754;28;20472;-58
2022/03/25 09:23:21;;;;;;;46.38;39.05;;;;;;;-148.33;100.00;56587.81;5070316;28;20055;-58
2022/03/25 09:25:46;;;;;;;50.70;40.00;;;;;;;-148.33;100.00;56587.81;5061805;28;20021;-58
2022/03/25 09:28:12;;;;;;;42.78;38.20;;;;;;;-148.33;100.00;56587.81;5049526;28;20025;-59
2022/03/25 09:30:38;;;;;;;46.30;37.63;;;;;;;-148.33;100.00;56587.81;5032288;28;20017;-59
2022/03/25 09:33:06;;;;;;;46.95;38.10;;;;;;;-148.33;100.00;56587.81;5049656;28;20028;-58
2022/03/25 09:35:32;;;;;;;43.33;36.47;;;;;;;-148.33;100.00;56587.81;5049559;28;20031;-58
2022/03/25 09:37:57;;;;;;;47.10;36.78;;;;;;;-148.33;100.00;56587.81;5050055;28;20021;-58
2022/03/25 09:40:27;;;;;;;43.38;35.47;;;;;;;-148.33;100.00;56587.81;5050347;28;20457;-58
2022/03/25 09:42:55;;;;;;;44.25;38.40;;;;;;;-148.33;100.00;56587.81;5049441;28;20033;-57
2022/03/25 09:45:22;;;;;;;40.72;35.47;;;;;;;-148.33;100.00;56587.81;5049664;28;20033;-59
2022/03/25 09:47:49;;;;;;;40.35;33.28;;;;;;;-148.33;100.00;56587.81;5049437;28;20028;-59
2022/03/25 09:50:17;;;;;;;40.05;31.83;;;;;;;-148.33;100.00;56587.81;5069989;28;20021;-59
2022/03/25 09:52:44;;;;;;;38.25;30.85;;;;;;;-148.33;100.00;56587.81;5051486;28;20025;-60
2022/03/25 09:55:11;;;;;;;39.47;32.28;;;;;;;-148.33;100.00;56587.81;5049360;28;20466;-60
2022/03/25 09:57:36;;;;;;;38.67;30.95;;;;;;;-148.33;100.00;56587.81;5049277;28;20090;-60
2022/03/25 10:00:04;;;;;;;38.88;32.60;;;;;;;-148.33;100.00;56587.81;5048553;28;20057;-60
2022/03/25 10:02:30;;;;;;;37.35;30.92;;;;;;;-148.33;100.00;56587.81;5046838;28;20040;-59
2022/03/25 10:04:56;;;;;;;40.38;32.40;;;;;;;-148.33;100.00;56587.81;5047737;28;20020;-60
2022/03/25 10:07:25;;;;;;;33.97;30.30;;;;;;;-148.33;100.00;56587.81;5047848;28;20074;-60
2022/03/25 10:10:06;;;;;;;39.20;31.45;;;;;;;-148.33;100.00;56587.81;5047324;28;20025;-59
2022/03/25 10:12:32;;;;;;;36.60;30.65;;;;;;;-148.33;100.00;56587.81;5048199;28;20060;-60
2022/03/25 10:15:13;;;;;;;35.65;30.20;;;;;;;-148.33;100.00;56587.81;5053235;28;20097;-60
2022/03/25 10:17:47;;;;;;;36.38;31.45;;;;;;;-148.33;100.00;56587.81;5049239;28;20178;-59
2022/03/25 10:20:13;;;;;;;37.72;31.52;;;;;;;-148.33;100.00;56587.81;5048424;28;20029;-59
2022/03/25 10:22:39;;;;;;;35.75;31.92;;;;;;;-148.33;100.00;56587.81;5047964;28;20039;-59
2022/03/25 10:25:09;;;;;;;37.33;31.65;;;;;;;-148.33;100.00;56587.81;5048773;28;20025;-59
2022/03/25 10:27:35;;;;;;;35.60;31.00;;;;;;;-148.33;100.00;56587.81;5048977;28;20036;-60
2022/03/25 10:30:03;;;;;;;38.15;32.65;;;;;;;-148.33;100.00;56587.81;5047687;28;20097;-60
2022/03/25 10:32:28;;;;;;;35.45;31.65;;;;;;;-148.33;100.00;56587.81;5048560;28;20024;-59
2022/03/25 10:35:01;;;;;;;37.95;31.98;;;;;;;-148.33;100.00;56587.81;5048506;28;20021;-59
2022/03/25 10:37:28;;;;;;;37.28;31.35;;;;;;;-148.33;100.00;56587.81;5049142;28;20060;-60
2022/03/25 10:39:53;;;;;;;42.15;34.33;;;;;;;-148.33;100.00;56587.81;5048221;28;20029;-60
2022/03/25 10:42:19;;;;;;;39.95;33.88;;;;;;;-148.33;100.00;56587.81;5047694;28;20482;-60
2022/03/25 10:44:44;;;;;;;39.08;30.60;;;;;;;-148.33;100.00;56587.81;5048103;28;20374;-60
2022/03/25 10:47:16;;;;;;;36.78;29.55;;;;;;;-148.33;100.00;56587.81;5047903;28;20075;-59
2022/03/25 10:49:43;;;;;;;;;;;;;;;-148.33;100.00;56587.81;5048314;28;20029;-60
2022/03/25 10:52:27;;;;;;;33.15;28.10;;;;;;;-148.33;100.00;56587.81;5055502;28;20479;-58
2022/03/25 10:55:16;;;;;;;38.30;31.73;;;;;;;-148.33;100.00;56587.81;5047480;28;20044;-60